Time;durP1;ratioP1;P1;durP2;ratioP2;P2;SDS_P1;SDS_P2;PMS_P1;PMS_P2;Temp;Humidity;BMP_temperature;BMP_pressure;BME280_temperature;BME280_humidity;BME280_pressure;Samples;Min_cycle;Max_cycle;Signal;HPM_P1;HPM_P2
2023/03/05 00:04:21;;;;;;;21.15;10.85;;;;;;;4.94;61.15;100333.88;10449723;28;20055;-65
2023/03/05 00:09:23;;;;;;;20.15;10.32;;;;;;;4.84;61.09;100334.22;10444367;28;20957;-65
2023/03/05 00:14:25;;;;;;;22.58;10.00;;;;;;;4.86;61.10;100335.00;10432812;28;20055;-65
2023/03/05 00:19:27;;;;;;;17.60;9.73;;;;;;;4.89;61.00;100330.56;10438704;28;20060;-64
2023/03/05 00:24:29;;;;;;;23.60;10.48;;;;;;;4.96;60.86;100331.25;10436781;28;20060;-65
2023/03/05 00:29:30;;;;;;;27.02;8.98;;;;;;;4.91;60.52;100321.00;10417122;28;20056;-64
2023/03/05 00:34:32;;;;;;;19.25;9.43;;;;;;;4.98;60.56;100319.09;10432202;28;20052;-64
2023/03/05 00:39:34;;;;;;;20.25;9.07;;;;;;;5.07;60.07;100314.47;10440889;28;20056;-63
2023/03/05 00:44:35;;;;;;;17.45;9.07;;;;;;;5.07;60.00;100308.41;10444938;28;20045;-64
2023/03/05 00:49:37;;;;;;;19.70;8.45;;;;;;;5.06;59.88;100305.00;10431660;28;20051;-64
2023/03/05 00:54:39;;;;;;;26.90;10.20;;;;;;;4.93;60.09;100305.41;10431355;28;20416;-64
2023/03/05 00:59:40;;;;;;;20.48;8.73;;;;;;;4.91;60.12;100296.84;10446307;28;20064;-63
2023/03/05 01:04:44;;;;;;;18.30;8.10;;;;;;;4.91;59.89;100286.47;10431357;28;20560;-63
2023/03/05 01:09:46;;;;;;;18.52;8.68;;;;;;;4.86;59.93;100288.38;10456536;28;20053;-63
2023/03/05 01:14:48;;;;;;;19.52;8.40;;;;;;;4.81;59.77;100274.69;10430363;28;20413;-63
2023/03/05 01:19:49;;;;;;;18.48;8.02;;;;;;;4.85;59.63;100271.97;10437918;28;20421;-63
2023/03/05 01:24:51;;;;;;;18.23;7.50;;;;;;;4.95;59.41;100262.16;10429964;28;20049;-63
2023/03/05 01:29:53;;;;;;;20.52;8.02;;;;;;;4.99;59.18;100269.78;10454046;28;20832;-63
2023/03/05 01:34:54;;;;;;;16.95;7.68;;;;;;;4.96;58.76;100258.69;10461558;28;20063;-63
2023/03/05 01:39:56;;;;;;;19.77;7.45;;;;;;;4.86;58.84;100254.69;10428743;28;20063;-63
2023/03/05 01:45:06;;;;;;;19.55;6.95;;;;;;;4.74;58.18;100247.28;10428305;28;20051;-64
2023/03/05 01:50:18;;;;;;;15.60;7.28;;;;;;;4.66;58.19;100248.34;10432687;28;20045;-63
2023/03/05 01:55:23;;;;;;;16.83;7.22;;;;;;;4.69;58.12;100243.09;10440768;28;20056;-63
2023/03/05 02:00:29;;;;;;;19.10;7.47;;;;;;;4.65;58.02;100244.09;10410864;28;20092;-64
2023/03/05 02:05:34;;;;;;;17.75;7.65;;;;;;;4.57;58.00;100230.53;10411282;28;20044;-63
2023/03/05 02:10:41;;;;;;;17.98;7.53;;;;;;;4.59;58.08;100233.91;10447323;28;20052;-64
2023/03/05 02:15:43;;;;;;;18.30;7.95;;;;;;;4.59;58.08;100223.56;10427808;28;20489;-64
2023/03/05 02:20:53;;;;;;;20.42;8.02;;;;;;;4.64;57.71;100220.81;10468709;28;20411;-64
2023/03/05 02:25:55;;;;;;;15.50;7.85;;;;;;;4.62;57.55;100218.25;10468857;28;20053;-63
2023/03/05 02:30:57;;;;;;;16.73;7.75;;;;;;;4.54;57.40;100214.22;10468372;28;20507;-63
2023/03/05 02:35:59;;;;;;;19.55;8.13;;;;;;;4.56;57.88;100217.59;10468345;28;20067;-63
2023/03/05 02:41:01;;;;;;;20.52;8.98;;;;;;;4.51;57.96;100214.31;10431958;28;20501;-63
2023/03/05 02:46:03;;;;;;;21.42;7.95;;;;;;;4.39;58.10;100210.34;10440153;28;20393;-63
2023/03/05 02:51:06;;;;;;;20.60;8.15;;;;;;;4.45;57.76;100210.19;10465267;28;20493;-63
2023/03/05 02:56:07;;;;;;;20.05;8.00;;;;;;;4.44;57.77;100207.63;10440849;28;20048;-64
2023/03/05 03:01:09;;;;;;;18.40;7.57;;;;;;;4.38;57.82;100198.31;10468812;28;20048;-64
2023/03/05 03:06:11;;;;;;;18.27;7.78;;;;;;;4.42;57.90;100204.22;10434077;28;20045;-63
2023/03/05 03:11:13;;;;;;;22.30;8.63;;;;;;;4.37;57.79;100196.59;10438061;28;20052;-64
2023/03/05 03:16:15;;;;;;;20.88;8.18;;;;;;;4.34;58.09;100199.28;10416072;28;20048;-64
2023/03/05 03:21:19;;;;;;;19.00;8.27;;;;;;;4.40;58.27;100193.06;10418591;28;20064;-64
2023/03/05 03:26:21;;;;;;;18.52;7.88;;;;;;;4.50;58.23;100187.56;10475233;28;20048;-64
2023/03/05 03:31:23;;;;;;;22.95;7.72;;;;;;;4.55;57.90;100185.69;10468824;28;20562;-63
2023/03/05 03:36:24;;;;;;;22.05;8.50;;;;;;;4.56;57.79;100176.16;10433226;28;20067;-63
2023/03/05 03:41:26;;;;;;;17.92;8.13;;;;;;;4.56;58.01;100170.97;10467091;28;20053;-63
2023/03/05 03:46:28;;;;;;;15.73;7.10;;;;;;;4.50;57.79;100173.75;10446132;28;20361;-64
2023/03/05 03:51:30;;;;;;;14.00;6.65;;;;;;;4.48;57.74;100173.81;10415971;28;20056;-63
2023/03/05 03:56:31;;;;;;;16.88;6.40;;;;;;;4.52;57.32;100165.06;10474258;28;20048;-63
2023/03/05 04:01:33;;;;;;;14.02;6.00;;;;;;;4.54;57.54;100165.84;10457242;28;20409;-63
2023/03/05 04:06:35;;;;;;;16.27;7.07;;;;;;;4.52;57.80;100159.03;10440285;28;20041;-63
2023/03/05 04:11:37;;;;;;;19.10;8.40;;;;;;;4.49;58.08;100153.97;10444844;28;20061;-63
2023/03/05 04:16:38;;;;;;;16.58;7.45;;;;;;;4.40;58.42;100147.31;10434423;28;20055;-63
2023/03/05 04:21:40;;;;;;;19.58;8.20;;;;;;;4.33;58.42;100147.56;10434067;28;20524;-63
2023/03/05 04:26:42;;;;;;;16.40;7.57;;;;;;;4.25;58.69;100149.53;10434242;28;20053;-64
2023/03/05 04:31:43;;;;;;;20.52;7.75;;;;;;;4.13;58.53;100130.03;10445963;28;20060;-63
2023/03/05 04:36:45;;;;;;;16.50;7.70;;;;;;;4.01;58.76;100134.72;10474976;28;20048;-63
2023/03/05 04:41:47;;;;;;;18.73;7.57;;;;;;;4.06;58.51;100127.69;10439354;28;20060;-63
2023/03/05 04:46:48;;;;;;;14.93;6.70;;;;;;;4.02;58.71;100119.19;10432944;28;20055;-63
2023/03/05 04:51:50;;;;;;;15.13;6.43;;;;;;;4.07;58.33;100114.69;10452545;28;20053;-63
2023/03/05 04:56:52;;;;;;;13.45;5.95;;;;;;;4.13;58.16;100106.75;10432448;28;20053;-63
2023/03/05 05:01:54;;;;;;;16.30;6.53;;;;;;;4.05;58.03;100103.53;10439275;28;20052;-64
2023/03/05 05:06:56;;;;;;;18.30;7.78;;;;;;;3.73;58.43;100104.47;10458383;28;20141;-64
2023/03/05 05:11:58;;;;;;;20.02;8.05;;;;;;;3.78;58.21;100097.41;10428440;28;20049;-64
2023/03/05 05:17:03;;;;;;;14.77;7.45;;;;;;;3.81;58.36;100089.59;10431303;28;20699;-63
2023/03/05 05:22:05;;;;;;;17.15;7.38;;;;;;;3.86;58.07;100085.13;10463084;28;20892;-63
2023/03/05 05:27:07;;;;;;;21.63;8.77;;;;;;;3.84;58.22;100089.50;10465822;28;20049;-63
2023/03/05 05:32:08;;;;;;;19.27;8.23;;;;;;;3.79;58.06;100093.09;10430399;28;20052;-63
2023/03/05 05:37:10;;;;;;;18.30;8.55;;;;;;;3.70;58.22;100099.38;10471704;28;20468;-63
2023/03/05 05:42:12;;;;;;;20.17;9.45;;;;;;;3.73;58.71;100096.72;10456090;28;20045;-63
2023/03/05 05:47:15;;;;;;;21.17;9.75;;;;;;;3.82;58.37;100093.84;10456984;28;20056;-63
2023/03/05 05:52:16;;;;;;;18.02;7.93;;;;;;;3.77;58.42;100089.72;10429796;28;20056;-63
2023/03/05 05:57:18;;;;;;;19.30;8.38;;;;;;;3.77;58.60;100106.09;10429350;28;20517;-63
2023/03/05 06:02:20;;;;;;;14.00;7.80;;;;;;;3.77;58.63;100089.72;10429335;28;20277;-63
2023/03/05 06:07:21;;;;;;;17.58;8.07;;;;;;;3.65;58.84;100090.06;10438153;28;20763;-63
2023/03/05 06:12:23;;;;;;;15.52;7.63;;;;;;;3.65;58.82;100084.91;10432981;28;20791;-63
2023/03/05 06:17:25;;;;;;;13.00;7.05;;;;;;;3.75;58.58;100083.72;10442509;28;20614;-63
2023/03/05 06:22:35;;;;;;;15.50;6.90;;;;;;;3.64;58.48;100089.22;10429188;28;20045;-63
2023/03/05 06:27:37;;;;;;;14.63;6.38;;;;;;;3.66;58.27;100091.78;10450924;28;20129;-63
2023/03/05 06:32:39;;;;;;;12.68;6.22;;;;;;;3.71;58.08;100093.34;10427852;28;20048;-64
2023/03/05 06:37:41;;;;;;;11.90;5.93;;;;;;;3.68;57.86;100095.16;10469016;28;20075;-64
2023/03/05 06:42:42;;;;;;;13.15;6.13;;;;;;;3.76;57.53;100098.38;10459497;28;20138;-64
2023/03/05 06:47:44;;;;;;;14.93;6.22;;;;;;;3.74;57.72;100100.16;10454963;28;20049;-64
2023/03/05 06:52:48;;;;;;;13.02;6.25;;;;;;;3.84;57.44;100099.84;10431580;28;20055;-63
2023/03/05 06:57:50;;;;;;;13.02;7.10;;;;;;;3.85;57.47;100100.72;10427897;28;20045;-64
2023/03/05 07:02:51;;;;;;;13.52;7.03;;;;;;;3.85;57.39;100096.38;10428016;28;20048;-63
2023/03/05 07:07:53;;;;;;;16.85;8.27;;;;;;;3.83;57.33;100099.88;10427228;28;20045;-65
2023/03/05 07:12:55;;;;;;;13.55;7.25;;;;;;;3.84;57.35;100099.03;10428461;28;20049;-64
2023/03/05 07:17:57;;;;;;;15.40;7.57;;;;;;;3.78;57.65;100099.19;10468383;28;20063;-64
2023/03/05 07:22:58;;;;;;;13.90;7.60;;;;;;;3.90;57.46;100101.44;10468741;28;20128;-65
2023/03/05 07:28:00;;;;;;;15.57;7.38;;;;;;;4.07;57.22;100088.81;10441679;28;20052;-64
2023/03/05 07:33:01;;;;;;;18.85;8.52;;;;;;;4.12;56.99;100088.69;10468148;28;20056;-65
2023/03/05 07:38:03;;;;;;;17.45;7.78;;;;;;;4.29;56.82;100084.66;10475497;28;20049;-64
2023/03/05 07:43:05;;;;;;;13.50;7.28;;;;;;;4.42;56.20;100078.19;10460149;28;20068;-65
2023/03/05 07:48:11;;;;;;;14.00;8.10;;;;;;;4.57;55.86;100084.63;10435663;28;20515;-64
2023/03/05 07:53:13;;;;;;;16.25;7.97;;;;;;;4.46;55.41;100081.53;10416650;28;20412;-63
2023/03/05 07:58:15;;;;;;;18.85;10.68;;;;;;;4.39;55.54;100073.09;10450744;28;20048;-64
2023/03/05 08:03:16;;;;;;;16.13;9.18;;;;;;;4.41;54.91;100073.06;10431990;28;20052;-65
2023/03/05 08:08:18;;;;;;;13.38;8.55;;;;;;;4.30;54.76;100068.25;10429030;28;20045;-65
2023/03/05 08:13:20;;;;;;;17.42;10.23;;;;;;;4.32;55.29;100071.63;10434206;28;20052;-65
2023/03/05 08:18:22;;;;;;;16.35;9.52;;;;;;;4.31;55.88;100067.34;10435163;28;20057;-65
2023/03/05 08:23:24;;;;;;;19.55;9.90;;;;;;;4.26;55.96;100052.84;10414021;28;20076;-64
2023/03/05 08:28:26;;;;;;;15.65;8.32;;;;;;;4.21;56.38;100049.56;10442431;28;20045;-65
2023/03/05 08:33:27;;;;;;;15.77;8.57;;;;;;;4.14;56.79;100042.88;10430654;28;20053;-64
2023/03/05 08:38:32;;;;;;;20.38;10.93;;;;;;;4.01;56.96;100037.25;10444635;28;20083;-65
2023/03/05 08:43:33;;;;;;;14.43;8.85;;;;;;;4.23;56.85;100035.66;10410297;28;20421;-65
2023/03/05 08:48:35;;;;;;;18.63;9.88;;;;;;;4.22;57.00;100036.56;10452044;28;20057;-65
2023/03/05 08:53:38;;;;;;;13.85;9.00;;;;;;;4.32;57.05;100037.97;10443939;28;20049;-65
2023/03/05 08:58:39;;;;;;;21.08;12.27;;;;;;;4.31;57.04;100043.22;10435866;28;20055;-65
2023/03/05 09:03:41;;;;;;;13.98;8.23;;;;;;;4.06;57.74;100037.09;10440079;28;20055;-63
2023/03/05 09:08:43;;;;;;;13.15;7.07;;;;;;;4.06;58.15;100035.38;10439037;28;20055;-65
2023/03/05 09:13:45;;;;;;;14.35;7.53;;;;;;;4.03;58.27;100034.63;10438212;28;20044;-64
2023/03/05 09:18:47;;;;;;;13.68;7.65;;;;;;;4.20;58.12;100033.19;10428290;28;20057;-64
2023/03/05 09:23:48;;;;;;;14.35;8.57;;;;;;;4.28;57.98;100027.75;10465525;28;20082;-64
2023/03/05 09:28:50;;;;;;;12.75;7.38;;;;;;;4.35;57.70;100022.31;10465877;28;20593;-63
2023/03/05 09:33:52;;;;;;;14.63;7.43;;;;;;;4.28;57.99;100018.25;10428308;28;20096;-65
2023/03/05 09:38:54;;;;;;;15.05;8.38;;;;;;;4.14;58.41;100017.88;10428380;28;20140;-64
2023/03/05 09:44:09;;;;;;;15.98;8.23;;;;;;;4.39;57.98;100013.56;10433389;28;20055;-64
2023/03/05 09:49:16;;;;;;;13.75;5.45;;;;;;;4.40;58.04;100017.84;10448379;28;20048;-64
2023/03/05 09:54:23;;;;;;;11.05;5.18;;;;;;;4.63;57.43;100004.97;10436029;28;20961;-65
2023/03/05 09:59:32;;;;;;;16.33;9.10;;;;;;;4.72;57.50;99993.44;10449383;28;20044;-65
2023/03/05 10:05:01;;;;;;;11.00;6.22;;;;;;;4.99;56.54;99991.59;10409921;28;20520;-64
2023/03/05 10:10:09;;;;;;;12.30;6.68;;;;;;;5.34;55.74;99985.97;10423507;28;20086;-63
2023/03/05 10:15:10;;;;;;;10.52;4.78;;;;;;;5.56;55.17;99981.66;10429608;28;20055;-63
2023/03/05 10:20:37;;;;;;;12.05;5.15;;;;;;;5.78;54.10;99966.94;10465656;28;20064;-64
2023/03/05 10:25:39;;;;;;;8.65;5.05;;;;;;;6.00;54.00;99956.56;10424975;28;20536;-64
2023/03/05 10:30:53;;;;;;;11.25;4.82;;;;;;;6.59;52.25;99938.50;10464975;28;20223;-63
2023/03/05 10:36:14;;;;;;;11.50;5.75;;;;;;;6.87;50.27;99919.03;10425313;28;20049;-65
2023/03/05 10:41:37;;;;;;;11.43;5.28;;;;;;;7.01;50.32;99918.41;10424125;28;20059;-64
2023/03/05 10:46:39;;;;;;;11.88;7.00;;;;;;;7.41;50.51;99913.03;10407376;28;20061;-65
2023/03/05 10:51:51;;;;;;;12.60;6.72;;;;;;;7.35;49.19;99902.91;10448738;28;20051;-65
2023/03/05 10:57:03;;;;;;;14.50;6.97;;;;;;;7.08;49.57;99899.00;10447255;28;20062;-65
2023/03/05 11:02:07;;;;;;;13.82;7.25;;;;;;;7.09;49.61;99893.75;10447968;28;20041;-63
2023/03/05 11:07:15;;;;;;;9.52;5.28;;;;;;;6.64;48.83;99892.34;10458880;28;20896;-64
2023/03/05 11:12:20;;;;;;;8.05;3.92;;;;;;;6.27;49.75;99888.78;10429025;28;20442;-65
2023/03/05 11:17:23;;;;;;;11.60;5.15;;;;;;;5.89;50.19;99881.72;10450510;28;20056;-65
2023/03/05 11:22:26;;;;;;;14.45;6.68;;;;;;;5.85;50.35;99874.97;10438768;28;20416;-67
2023/03/05 11:27:36;;;;;;;5.40;2.63;;;;;;;5.82;49.52;99875.09;10457514;28;20056;-66
2023/03/05 11:32:38;;;;;;;6.38;2.60;;;;;;;5.96;49.71;99877.13;10437610;28;20389;-68
2023/03/05 11:37:40;;;;;;;7.63;4.13;;;;;;;5.91;49.62;99869.53;10465189;28;20419;-68
2023/03/05 11:42:43;;;;;;;5.50;2.50;;;;;;;5.83;49.15;99868.16;10437158;28;20143;-67
2023/03/05 11:47:49;;;;;;;6.10;3.35;;;;;;;5.88;48.93;99859.25;10434867;28;20045;-68
2023/03/05 11:52:56;;;;;;;6.32;3.15;;;;;;;6.22;48.34;99856.09;10426028;28;20317;-68
2023/03/05 11:58:16;;;;;;;4.53;2.30;;;;;;;6.50;46.29;99846.22;10428331;28;20056;-67
2023/03/05 12:03:23;;;;;;;4.30;2.13;;;;;;;6.68;46.84;99839.34;10439084;28;20053;-68
2023/03/05 12:08:32;;;;;;;5.30;2.25;;;;;;;6.67;46.43;99838.50;10423548;28;20499;-67
2023/03/05 12:13:39;;;;;;;5.85;2.53;;;;;;;6.66;46.85;99820.38;10422697;28;20059;-67
2023/03/05 12:18:52;;;;;;;14.98;3.45;;;;;;;6.33;47.23;99831.38;10458777;28;20059;-68
2023/03/05 12:23:58;;;;;;;8.02;3.25;;;;;;;6.04;48.22;99813.56;10429918;28;20053;-68
2023/03/05 12:29:00;;;;;;;7.97;2.78;;;;;;;6.08;48.29;99809.94;10458269;28;20049;-69
2023/03/05 12:34:39;;;;;;;7.25;3.05;;;;;;;6.16;47.77;99812.22;10432657;28;20063;-68
2023/03/05 12:39:46;;;;;;;5.80;3.05;;;;;;;6.52;47.44;99799.38;10444689;28;20060;-68
2023/03/05 12:45:08;;;;;;;7.60;2.80;;;;;;;6.65;47.11;99785.78;10437689;28;20543;-68
2023/03/05 12:50:25;;;;;;;5.57;3.20;;;;;;;6.28;47.80;99781.41;10447835;28;20045;-68
2023/03/05 12:55:34;;;;;;;8.20;3.50;;;;;;;6.34;48.15;99768.13;10430258;28;20059;-68
2023/03/05 13:01:13;;;;;;;6.35;3.60;;;;;;;5.99;47.53;99767.97;10430925;28;20052;-68
2023/03/05 13:06:28;;;;;;;7.88;3.47;;;;;;;5.92;47.94;99749.22;10441676;28;20041;-68
2023/03/05 13:11:36;;;;;;;6.88;3.53;;;;;;;5.91;48.46;99747.53;10425272;28;20053;-68
2023/03/05 13:16:38;;;;;;;8.13;4.07;;;;;;;5.88;48.42;99745.06;10415731;28;20057;-68
2023/03/05 13:21:40;;;;;;;7.75;4.00;;;;;;;5.85;48.70;99739.19;10430179;28;20060;-68
2023/03/05 13:26:42;;;;;;;6.32;3.92;;;;;;;5.74;49.04;99731.03;10429751;28;20065;-68
2023/03/05 13:31:53;;;;;;;6.32;3.90;;;;;;;5.84;48.10;99727.13;10426412;28;20040;-68
2023/03/05 13:37:14;;;;;;;9.93;3.70;;;;;;;5.91;48.60;99723.34;10444237;28;21897;-69
2023/03/05 13:42:18;;;;;;;7.00;3.78;;;;;;;5.98;48.78;99720.38;10425424;28;20063;-68
2023/03/05 13:47:22;;;;;;;8.07;4.28;;;;;;;5.95;48.84;99712.75;10428601;28;20048;-68
2023/03/05 13:52:27;;;;;;;6.50;4.05;;;;;;;6.03;48.92;99702.88;10427603;28;20428;-69
2023/03/05 13:57:44;;;;;;;7.80;3.97;;;;;;;6.04;48.52;99701.94;10429543;28;20420;-68
2023/03/05 14:02:45;;;;;;;8.18;4.20;;;;;;;5.99;49.21;99698.72;10426007;28;20067;-68
2023/03/05 14:07:49;;;;;;;8.80;4.10;;;;;;;6.08;49.27;99695.69;10422061;28;20099;-69
2023/03/05 14:12:51;;;;;;;7.88;4.00;;;;;;;5.91;49.54;99687.00;10428013;28;20296;-68
2023/03/05 14:18:11;;;;;;;8.57;4.32;;;;;;;5.99;49.30;99679.72;10412193;28;20057;-68
2023/03/05 14:23:33;;;;;;;7.72;3.78;;;;;;;6.08;49.24;99671.53;10426006;28;20160;-68
2023/03/05 14:28:36;;;;;;;7.53;3.88;;;;;;;6.20;49.16;99663.16;10427637;28;20055;-68
2023/03/05 14:33:39;;;;;;;7.53;4.80;;;;;;;6.29;49.04;99661.00;10424833;28;21832;-69
2023/03/05 14:38:44;;;;;;;7.85;4.60;;;;;;;6.21;49.18;99644.91;10426170;28;20054;-69
2023/03/05 14:43:45;;;;;;;25.65;12.77;;;;;;;6.20;48.96;99632.00;10424832;28;20052;-68
2023/03/05 14:48:47;;;;;;;17.33;9.48;;;;;;;6.02;49.04;99628.50;10434640;28;20044;-68
2023/03/05 14:53:51;;;;;;;14.95;7.72;;;;;;;6.01;49.22;99624.22;10425056;28;20057;-68
2023/03/05 14:58:53;;;;;;;26.52;13.73;;;;;;;5.93;49.02;99605.56;10427537;28;20052;-68
2023/03/05 15:03:55;;;;;;;21.27;12.35;;;;;;;5.64;49.30;99593.06;10426205;28;20051;-69
2023/03/05 15:08:58;;;;;;;14.85;8.68;;;;;;;5.70;49.36;99589.34;10424380;28;20461;-69
2023/03/05 15:14:00;;;;;;;11.27;6.40;;;;;;;5.57;49.32;99576.09;10420601;28;20057;-69
2023/03/05 15:19:02;;;;;;;6.88;4.30;;;;;;;5.52;49.41;99571.13;10425044;28;20421;-68
2023/03/05 15:24:04;;;;;;;9.63;4.68;;;;;;;5.48;49.46;99564.38;10433122;28;20045;-68
2023/03/05 15:29:06;;;;;;;8.68;4.70;;;;;;;5.33;49.86;99569.44;10428417;28;20051;-68
2023/03/05 15:34:07;;;;;;;14.35;7.90;;;;;;;5.26;50.04;99565.41;10427442;28;20045;-68
2023/03/05 15:39:09;;;;;;;9.32;5.20;;;;;;;5.24;50.09;99556.84;10411170;28;20063;-68
2023/03/05 15:44:11;;;;;;;10.52;6.72;;;;;;;5.25;49.91;99558.53;10427734;28;20493;-68
2023/03/05 15:49:13;;;;;;;7.68;4.60;;;;;;;5.37;49.92;99552.81;10444866;28;20053;-69
2023/03/05 15:54:15;;;;;;;12.07;7.55;;;;;;;5.39;49.83;99538.03;10427308;28;20964;-68
2023/03/05 15:59:17;;;;;;;11.57;6.30;;;;;;;5.35;49.98;99541.69;10449961;28;20049;-68
2023/03/05 16:04:18;;;;;;;12.70;4.72;;;;;;;5.40;50.01;99540.56;10434666;28;20477;-68
2023/03/05 16:09:21;;;;;;;11.07;4.80;;;;;;;5.48;50.03;99535.00;10430720;28;20564;-69
2023/03/05 16:14:26;;;;;;;11.38;4.43;;;;;;;5.51;50.06;99533.13;10445082;28;20056;-68
2023/03/05 16:19:29;;;;;;;9.27;5.30;;;;;;;5.46;50.24;99524.72;10435783;28;20463;-69
2023/03/05 16:24:32;;;;;;;10.50;6.10;;;;;;;5.51;50.28;99517.56;10435230;28;20049;-69
2023/03/05 16:29:36;;;;;;;9.02;4.70;;;;;;;5.47;50.29;99522.97;10430882;28;20126;-69
2023/03/05 16:34:37;;;;;;;38.33;19.95;;;;;;;5.28;50.44;99517.78;10432929;28;20412;-68
2023/03/05 16:39:39;;;;;;;13.80;7.20;;;;;;;5.29;50.65;99516.84;10433650;28;20048;-68
2023/03/05 16:44:42;;;;;;;26.17;15.05;;;;;;;5.33;50.74;99512.38;10431440;28;20053;-68
2023/03/05 16:49:44;;;;;;;39.75;19.80;;;;;;;5.26;50.80;99503.19;10430129;28;20060;-68
2023/03/05 16:54:46;;;;;;;8.18;4.65;;;;;;;5.09;50.89;99503.09;10431450;28;21014;-68
2023/03/05 16:59:48;;;;;;;10.27;6.78;;;;;;;4.98;51.19;99501.00;10431974;28;20049;-68
2023/03/05 17:04:49;;;;;;;7.63;5.00;;;;;;;4.91;51.53;99499.56;10435488;28;20037;-69
2023/03/05 17:09:52;;;;;;;8.13;4.75;;;;;;;4.97;51.55;99494.09;10415743;28;20053;-68
2023/03/05 17:14:54;;;;;;;7.35;5.03;;;;;;;4.90;51.64;99491.84;10436220;28;20048;-69
2023/03/05 17:19:57;;;;;;;11.10;6.05;;;;;;;4.89;51.72;99491.00;10429102;28;20417;-69
2023/03/05 17:24:59;;;;;;;9.38;4.70;;;;;;;4.89;51.94;99491.00;10430881;28;20514;-69
2023/03/05 17:30:01;;;;;;;7.30;4.63;;;;;;;4.86;52.03;99491.13;10435139;28;20048;-68
2023/03/05 17:35:03;;;;;;;10.02;6.65;;;;;;;4.83;52.18;99490.44;10445137;28;20057;-68
2023/03/05 17:40:06;;;;;;;10.13;5.65;;;;;;;4.76;52.42;99482.06;10430817;28;20132;-69
2023/03/05 17:45:08;;;;;;;9.07;5.60;;;;;;;4.76;52.43;99486.44;10429197;28;20045;-68
2023/03/05 17:50:12;;;;;;;8.55;5.40;;;;;;;4.73;52.42;99487.41;10432958;28;20133;-69
2023/03/05 17:55:16;;;;;;;9.88;6.55;;;;;;;4.55;52.62;99491.63;10426465;28;20053;-68
2023/03/05 18:00:20;;;;;;;8.77;6.50;;;;;;;4.72;52.73;99484.88;10428835;28;21734;-68
2023/03/05 18:05:23;;;;;;;16.48;12.65;;;;;;;4.86;52.75;99488.53;10427656;28;20049;-68
2023/03/05 18:10:26;;;;;;;13.90;10.70;;;;;;;4.92;52.77;99488.31;10429034;28;20389;-69
2023/03/05 18:15:29;;;;;;;16.70;12.48;;;;;;;5.00;52.69;99490.53;10426080;28;20409;-68
2023/03/05 18:20:34;;;;;;;22.13;15.80;;;;;;;4.98;52.68;99477.66;10427183;28;20044;-68
2023/03/05 18:25:36;;;;;;;12.30;7.95;;;;;;;4.94;52.66;99475.28;10427938;28;20041;-67
2023/03/05 18:30:39;;;;;;;15.98;11.45;;;;;;;4.96;52.92;99468.28;10426016;28;20052;-68
2023/03/05 18:35:41;;;;;;;25.35;16.75;;;;;;;4.98;53.06;99469.88;10428911;28;20514;-68
2023/03/05 18:40:44;;;;;;;26.83;17.15;;;;;;;5.02;52.73;99460.22;10436442;28;20063;-68
2023/03/05 18:45:47;;;;;;;40.17;24.25;;;;;;;5.02;53.03;99460.22;10435275;28;20559;-68
2023/03/05 18:50:53;;;;;;;35.58;22.88;;;;;;;5.06;53.20;99454.00;10444351;28;20601;-68
2023/03/05 18:55:55;;;;;;;14.50;10.05;;;;;;;5.04;53.58;99448.03;10428245;28;20528;-68
2023/03/05 19:00:56;;;;;;;10.05;7.72;;;;;;;4.99;54.18;99445.66;10428435;28;20482;-68
2023/03/05 19:05:58;;;;;;;11.40;7.72;;;;;;;4.90;54.38;99445.22;10430322;28;20224;-68
2023/03/05 19:11:00;;;;;;;15.68;8.70;;;;;;;4.86;54.64;99447.09;10429316;28;20048;-64
2023/03/05 19:16:22;;;;;;;13.50;8.98;;;;;;;4.76;55.00;99432.84;10430293;28;20044;-67
2023/03/05 19:21:24;;;;;;;17.98;10.10;;;;;;;4.74;54.74;99432.09;10428045;28;20053;-67
2023/03/05 19:26:25;;;;;;;12.57;8.20;;;;;;;4.68;54.67;99428.03;10424562;28;20052;-67
2023/03/05 19:31:27;;;;;;;15.88;9.52;;;;;;;4.52;55.19;99432.19;10426185;28;20686;-68
2023/03/05 19:36:31;;;;;;;11.00;8.40;;;;;;;4.52;55.23;99431.34;10409349;28;20045;-65
2023/03/05 19:41:33;;;;;;;16.05;10.63;;;;;;;4.39;55.48;99422.44;10424744;28;20049;-67
2023/03/05 19:46:35;;;;;;;13.32;10.07;;;;;;;4.42;55.61;99407.59;10426505;28;20616;-67
2023/03/05 19:51:38;;;;;;;12.38;8.35;;;;;;;4.39;55.47;99412.91;10426814;28;20045;-65
2023/03/05 19:56:42;;;;;;;12.10;8.18;;;;;;;4.42;55.61;99409.34;10424984;28;20060;-67
2023/03/05 20:01:44;;;;;;;24.10;9.02;;;;;;;4.43;55.96;99405.84;10420565;28;20049;-66
2023/03/05 20:06:46;;;;;;;31.42;13.23;;;;;;;4.41;56.11;99398.13;10408910;28;20678;-65
2023/03/05 20:11:48;;;;;;;24.77;12.10;;;;;;;4.42;55.93;99391.22;10427794;28;20048;-64
2023/03/05 20:16:49;;;;;;;16.02;9.55;;;;;;;4.44;55.75;99389.41;10433819;28;20053;-66
2023/03/05 20:21:51;;;;;;;13.02;9.27;;;;;;;4.43;55.68;99387.75;10426090;28;20446;-64
2023/03/05 20:26:53;;;;;;;12.18;8.52;;;;;;;4.30;55.91;99392.59;10427459;28;20057;-67
2023/03/05 20:31:55;;;;;;;13.65;9.63;;;;;;;4.31;56.02;99383.91;10438917;28;20048;-65
2023/03/05 20:36:58;;;;;;;12.85;8.90;;;;;;;4.23;56.45;99385.97;10412304;28;20068;-67
2023/03/05 20:41:59;;;;;;;13.35;8.80;;;;;;;4.17;56.05;99375.06;10425246;28;20080;-65
2023/03/05 20:47:12;;;;;;;12.38;8.60;;;;;;;4.06;56.28;99370.34;10436380;28;20409;-64
2023/03/05 20:52:14;;;;;;;11.80;8.95;;;;;;;4.07;56.46;99376.38;10438467;28;20509;-63
2023/03/05 20:57:15;;;;;;;14.98;10.48;;;;;;;4.05;56.72;99360.06;10435104;28;20033;-64
2023/03/05 21:02:17;;;;;;;15.95;11.70;;;;;;;4.18;56.50;99362.06;10434586;28;20402;-65
2023/03/05 21:07:19;;;;;;;15.23;11.30;;;;;;;4.29;56.51;99359.03;10431928;28;20048;-66
2023/03/05 21:12:20;;;;;;;23.08;14.40;;;;;;;4.32;56.48;99349.38;10434708;28;20069;-67
2023/03/05 21:17:22;;;;;;;30.98;17.67;;;;;;;4.27;56.44;99350.47;10434095;28;20429;-67
2023/03/05 21:22:24;;;;;;;27.85;16.20;;;;;;;4.28;56.65;99334.03;10417059;28;20059;-67
2023/03/05 21:27:26;;;;;;;23.33;12.25;;;;;;;4.23;56.88;99326.47;10432783;28;20041;-66
2023/03/05 21:32:27;;;;;;;20.30;11.98;;;;;;;4.16;57.27;99316.44;10432561;28;20045;-66
2023/03/05 21:37:29;;;;;;;17.85;10.13;;;;;;;4.09;57.54;99317.63;10430727;28;20658;-65
2023/03/05 21:42:31;;;;;;;18.15;11.50;;;;;;;4.06;57.67;99313.44;10432008;28;20431;-67
2023/03/05 21:47:33;;;;;;;16.23;10.80;;;;;;;4.03;58.02;99305.78;10415113;28;20040;-65
2023/03/05 21:52:36;;;;;;;16.73;9.95;;;;;;;4.09;58.14;99291.75;10429997;28;20405;-65
2023/03/05 21:57:38;;;;;;;16.08;10.68;;;;;;;4.18;58.19;99286.16;10433726;28;20049;-65
2023/03/05 22:02:40;;;;;;;14.90;10.75;;;;;;;4.09;58.23;99282.22;10431948;28;20048;-65
2023/03/05 22:07:42;;;;;;;14.80;9.95;;;;;;;4.10;58.22;99273.56;10429445;28;20049;-65
2023/03/05 22:18:14;;;;;;;16.02;10.32;;;;;;;3.90;58.78;99263.25;10431924;28;20088;-66
2023/03/05 22:23:17;;;;;;;17.33;10.10;;;;;;;3.85;59.23;99249.66;10429188;28;20389;-64
2023/03/05 22:28:18;;;;;;;14.00;9.77;;;;;;;3.73;59.31;99242.41;10430595;28;20048;-66
2023/03/05 22:33:21;;;;;;;14.68;10.35;;;;;;;3.72;59.16;99228.63;10432503;28;20045;-66
2023/03/05 22:38:24;;;;;;;16.23;11.15;;;;;;;3.81;59.69;99232.56;10430462;28;20053;-66
2023/03/05 22:43:26;;;;;;;13.98;10.13;;;;;;;3.80;59.73;99231.72;10436774;28;20045;-66
2023/03/05 22:48:28;;;;;;;16.80;11.30;;;;;;;3.79;59.76;99231.78;10412646;28;20041;-67
2023/03/05 22:53:30;;;;;;;14.80;10.55;;;;;;;3.73;60.00;99225.16;10411174;28;20444;-66
2023/03/05 22:58:32;;;;;;;13.20;8.52;;;;;;;3.58;59.96;99220.63;10427113;28;20132;-65
2023/03/05 23:03:34;;;;;;;13.63;9.02;;;;;;;3.46;60.19;99213.41;10429477;28;20048;-65
2023/03/05 23:08:36;;;;;;;11.77;7.85;;;;;;;3.59;60.16;99214.56;10431016;28;20076;-65
2023/03/05 23:13:39;;;;;;;14.50;8.95;;;;;;;3.75;59.88;99201.81;10427697;28;20090;-65
2023/03/05 23:18:40;;;;;;;15.55;8.50;;;;;;;3.67;59.82;99190.97;10430512;28;20067;-65
2023/03/05 23:23:42;;;;;;;12.75;8.63;;;;;;;3.49;60.32;99192.59;10440184;28;20444;-66
2023/03/05 23:28:44;;;;;;;14.07;9.07;;;;;;;3.41;60.52;99188.66;10433658;28;20528;-66
2023/03/05 23:33:45;;;;;;;14.77;9.32;;;;;;;3.42;60.38;99198.06;10427232;28;20053;-65